Conejos, Valles Caldera, New Mexico Weather observations

Data are for 10 minute period ending at time listed.
 Day   Time   Solar   Ave.   Ave.  Ave.  Vector  Max.   Baro.   Total    
  of    of     Rad.   Air    Rel.  Wind   Wind   Wind  Press.  Precip.   
Year   Day            Temp.  Hum.  Speed  Dir.   Gust                    
2015   (MST)  Kw/m2    F      %     mph   deg.    mph    mb.     in.     
-------------------------------------------------------------------------
 240   18:30   0.01   59.9    59    0.0     0     0.0   99999.0    0.00 
 240   18:40   0.00   60.2    54    0.0     0     0.0   99999.0    0.00 
 240   18:50   0.00   60.5    54    0.0     0     0.0   99999.0    0.00 
 240   19:00   0.00   60.2    55    0.0     0     0.0   99999.0    0.00 
 240   19:10   0.00   60.1    51    0.0     0     0.0   99999.0    0.00 
 240   19:20   0.00   61.0    50    0.0     0     0.0   99999.0    0.00 
 240   19:30   0.00   60.5    52    0.0     0     0.0   99999.0    0.00 
 240   19:40   0.00   59.6    57    0.0     0     0.0   99999.0    0.00 
 240   19:50   0.00   58.0    64    0.0     0     0.0   99999.0    0.00 
 240   20:00   0.00   57.1    64    0.0     0     0.0   99999.0    0.00 
 240   20:10   0.00   57.8    59    0.0     0     0.0   99999.0    0.00 
 240   20:20   0.00   58.4    58    0.0     0     0.0   99999.0    0.00 
 240   20:30   0.00   59.4    54    0.0     0     0.0   99999.0    0.00 
 240   20:40   0.00   59.8    53    0.0     0     0.0   99999.0    0.00 
 240   20:50   0.00   60.1    51    0.0     0     0.0   99999.0    0.00 
 240   21:00   0.00   60.3    50    0.0     0     0.0   99999.0    0.00 
 240   21:10   0.00   60.0    51    0.0     0     0.0   99999.0    0.00 
 240   21:20   0.00   59.8    51    0.0     0     0.0   99999.0    0.00 
 240   21:30   0.00   59.7    52    0.0     0     0.0   99999.0    0.00 
 240   21:40   0.00   59.0    57    0.0     0     0.0   99999.0    0.01 
 240   21:50   0.00   55.9    70    0.0     0     0.0   99999.0    0.00 
 240   22:00   0.00   56.1    64    0.0     0     0.0   99999.0    0.00 
 240   22:10   0.00   58.2    58    1.6   153     4.2   99999.0    0.00 
 240   22:20   0.00   58.2    59    3.3   140     8.4   99999.0    0.00 
 240   22:30   0.00   57.7    58    4.0   145    11.3   99999.0    0.00 
 240   22:40   0.00   57.6    56    3.9   141     8.4   99999.0    0.00 
 240   22:50   0.00   56.8    60    3.6   139     7.2   99999.0    0.00 
 240   23:00   0.00   56.4    63    3.9   142     7.8   99999.0    0.00 
 240   23:10   0.00   56.4    64    3.9   137     7.8   99999.0    0.00 
 240   23:20   0.00   56.2    67    4.2   142     9.6   99999.0    0.00 
 240   23:30   0.00   56.0    69    3.3   134     8.4   99999.0    0.00 
 240   23:40   0.00   56.2    68    3.9   137     9.6   99999.0    0.00 
 240   23:50   0.00   56.1    68    2.7   124     6.0   99999.0    0.00 
 241    0:00   0.00   55.9    68    3.2   137     6.0   99999.0    0.00 
 241    0:10   0.00   55.9    68    3.2   134     7.2   99999.0    0.00 
 241    0:20   0.00   55.5    70    3.0   139     6.6   99999.0    0.00 
 241    0:30   0.00   55.2    70    2.8   133     6.0   99999.0    0.00 
 241    0:40   0.00   55.0    71    2.6   134     5.4   99999.0    0.00 
 241    0:50   0.00   54.7    72    1.8   138     3.6   99999.0    0.00 
 241    1:00   0.00   54.5    72    1.8   148     5.4   99999.0    0.00 
 241    1:10   0.00   54.8    70    2.5   145     4.8   99999.0    0.00 
 241    1:20   0.00   55.2    69    2.9   148     6.6   99999.0    0.00 
 241    1:30   0.00   55.3    69    2.3   139     5.4   99999.0    0.00 
 241    1:40   0.00   55.0    70    1.9   159     4.8   99999.0    0.00 
 241    1:50   0.00   54.7    72    2.2   134     5.4   99999.0    0.00 
 241    2:00   0.00   54.5    73    2.3   131     4.2   99999.0    0.00 
 241    2:10   0.00   54.4    73    2.2   147     5.4   99999.0    0.00 
 241    2:20   0.00   54.2    73    2.3   147     5.4   99999.0    0.00 
 241    2:30   0.00   54.0    73    2.2   150     5.4   99999.0    0.00 
 241    2:40   0.00   54.0    71    1.7   145     4.8   99999.0    0.00 
 241    2:50   0.00   54.1    69    2.2   138     6.0   99999.0    0.00 
 241    3:00   0.00   54.4    66    2.4   132     6.6   99999.0    0.00 
 241    3:10   0.00   54.4    65    1.9   139     4.2   99999.0    0.00 
 241    3:20   0.00   54.3    65    1.7   134     4.2   99999.0    0.00 
 241    3:30   0.00   54.4    66    1.8   139     6.6   99999.0    0.00 
 241    3:40   0.00   54.8    65    2.4   135     5.4   99999.0    0.00 
 241    3:50   0.00   54.9    64    2.7   153     4.8   99999.0    0.00 
 241    4:00   0.00   54.7    63    2.4   154     4.8   99999.0    0.00 
 241    4:10   0.00   54.6    61    2.9   156     6.0   99999.0    0.00 
 241    4:20   0.00   54.6    60    2.9   160     4.2   99999.0    0.00 
 241    4:30   0.00   54.5    61    2.7   161     4.2   99999.0    0.00 
 241    4:40   0.00   54.3    61    2.2   164     4.2   99999.0    0.00 
 241    4:50   0.00   54.4    60    2.2   162     3.6   99999.0    0.00 
 241    5:00   0.00   54.5    60    2.3   154     4.2   99999.0    0.00 
 241    5:10   0.00   53.8    64    1.5   159     3.6   99999.0    0.00 
 241    5:20   0.00   51.4    70    1.9   167     3.0   99999.0    0.00 
 241    5:30   0.00   50.1    72    1.4   163     3.0   99999.0    0.00 
 241    5:40   0.00   52.0    67    1.8   164     4.2   99999.0    0.00 
 241    5:50   0.00   52.6    65    1.8   173     3.0   99999.0    0.00 
 241    6:00   0.01   52.7    66    1.7   166     3.0   99999.0    0.00 
 241    6:10   0.01   51.0    71    1.5   163     2.4   99999.0    0.00 
 241    6:20   0.02   52.7    68    2.2   164     3.6   99999.0    0.00 
 241    6:30   0.03   53.8    66    2.2   156     4.2   99999.0    0.00 
 241    6:40   0.06   54.2    66    1.8   161     3.0   99999.0    0.00 
 241    6:50   0.08   55.3    65    1.5   158     3.6   99999.0    0.00 
 241    7:00   0.04   57.3    63    0.7   154     2.4   99999.0    0.00 
 241    7:10   0.05   57.1    65    0.7   132     2.4   99999.0    0.00 
 241    7:20   0.04   56.8    67    2.1   158     4.8   99999.0    0.00 
 241    7:30   0.06   57.3    67    1.7   147     3.6   99999.0    0.00 
 241    7:40   0.09   58.6    62    1.6   136     5.4   99999.0    0.00 
 241    7:50   0.10   59.4    59    2.1   144     4.5   99999.0    0.00 
 241    8:00   0.10   60.2    57    2.6   135     4.8   99999.0    0.00 
 241    8:10   0.07   60.6    58    2.4   150     4.8   99999.0    0.00 
 241    8:20   0.31   61.5    54    2.2   111     5.4   99999.0    0.00 
 241    8:30   0.25   62.2    53    2.8   131     6.6   99999.0    0.00 
 241    8:40   0.17   62.1    53    2.4   141     5.4   99999.0    0.00 
 241    8:50   0.50   62.5    52    3.1   148     7.2   99999.0    0.00 
 241    9:00   0.66   63.5    51    3.4   155     7.2   99999.0    0.00 
 241    9:10   0.68   64.0    49    2.7   119     6.0   99999.0    0.00 
 241    9:20   0.35   64.7    48    3.5   139     7.8   99999.0    0.00 
 241    9:30   0.24   65.2    48    3.0   122     7.2   99999.0    0.00 
 241    9:40   0.20   65.9    47    3.1   122     6.6   99999.0    0.00 
 241    9:50   0.16   65.4    47    2.2    97     4.8   99999.0    0.00 
 241   10:00   0.76   65.7    47    3.3   151     7.2   99999.0    0.00 
 241   10:10   0.84   65.8    46    4.2   140     9.0   99999.0    0.00 
 241   10:20   0.85   65.9    46    3.8   152     8.4   99999.0    0.00 
 241   10:30   0.87   66.5    44    4.4   152    11.3   99999.0    0.00 
 241   10:40   0.89   66.7    42    5.0   165    10.8   99999.0    0.00 
 241   10:50   0.90   67.6    41    3.1   178     9.6   99999.0    0.00 
 241   11:00   0.92   69.0    39    3.6   132     7.8   99999.0    0.00 
 241   11:10   0.93   68.6    36    4.7   150     8.4   99999.0    0.00 
 241   11:20   0.94   69.5    37    3.6   137    10.2   99999.0    0.00 
 241   11:30   0.97   70.2    34    4.1   124    10.8   99999.0    0.00 
 241   11:40   0.71   70.3    34    4.4   145    10.8   99999.0    0.00 
 241   11:50   0.29   68.2    36    3.6   168     7.2   99999.0    0.00 
 241   12:00   0.23   66.9    36    1.6   191     3.6   99999.0    0.00 
 241   12:10   0.20   66.6    38    2.8   137     4.8   99999.0    0.00 
 241   12:20   0.13   66.1    38    1.8   160     6.6   99999.0    0.00 
 241   12:30   0.11   65.6    39    0.2   164     1.8   99999.0    0.00 
 241   12:40   0.11   65.2    40    0.6   190     2.4   99999.0    0.00 
 241   12:50   0.12   65.2    42    0.2   164     1.8   99999.0    0.00 
 241   13:00   0.14   65.0    47    0.0     0     0.0   99999.0    0.00 
 241   13:10   0.19   65.0    45    0.0     0     0.0   99999.0    0.00 
 241   13:20   0.24   65.7    43    1.0    12     2.4   99999.0    0.00 
 241   13:30   0.41   66.1    45    2.4   342     4.8   99999.0    0.00 
 241   13:40   0.75   66.4    40    3.4   326     7.8   99999.0    0.00 
 241   13:50   0.63   68.1    38    2.3   305     4.8   99999.0    0.00 
 241   14:00   0.13   68.6    35    3.2   320     7.2   99999.0    0.00 
 241   14:10   0.10   68.7    34    2.9   337     4.8   99999.0    0.00 
 241   14:20   0.13   68.2    32    1.7   245     4.8   99999.0    0.00 
 241   14:30   0.21   68.9    32    2.4    24     5.4   99999.0    0.00 
 241   14:40   0.22   68.3    32    1.6   340     3.6   99999.0    0.00 
 241   14:50   0.21   68.8    32    1.1   221     2.4   99999.0    0.00 
 241   15:00   0.19   68.6    33    2.2   154     7.5   99999.0    0.00 
 241   15:10   0.18   67.2    36    4.3   136     9.6   99999.0    0.00 
 241   15:20   0.17   66.4    38    4.5   146    11.9   99999.0    0.00 
 241   15:30   0.20   66.2    38    4.1   114     8.1   99999.0    0.00 
 241   15:40   0.24   67.7    36    4.6   140    10.8   99999.0    0.00 
 241   15:50   0.15   66.4    36    5.1   156    11.9   99999.0    0.00 
 241   16:00   0.48   66.2    36    4.2   142     7.8   99999.0    0.00 
 241   16:10   0.45   67.1    36    3.9   144     7.2   99999.0    0.00 
 241   16:20   0.15   66.4    36    3.7   142     8.4   99999.0    0.00 
 241   16:30   0.07   65.9    37    3.6   140     7.2   99999.0    0.00 
 241   16:40   0.06   65.5    38    3.4   147     9.6   99999.0    0.00 
 241   16:50   0.04   65.6    37    3.7   143     7.8   99999.0    0.00 
 241   17:00   0.04   64.5    40    2.4   127     4.8   99999.0    0.00 
 241   17:10   0.05   64.4    42    2.3   142     6.0   99999.0    0.00 
 241   17:20   0.03   64.1    41    3.2   145     7.8   99999.0    0.00 
 241   17:30   0.02   64.1    40    2.8   130     5.4   99999.0    0.00 
 241   17:40   0.02   63.6    42    2.4   124     6.0   99999.0    0.00 
 241   17:50   0.01   62.9    43    2.9   152     5.4   99999.0    0.00 
 241   18:00   0.01   62.6    44    2.5   159     4.8   99999.0    0.00 
 241   18:10   0.01   62.3    44    2.2   156     4.2   99999.0    0.00 
 241   18:20   0.01   61.8    45    1.2   146     2.4   99999.0    0.00 

Return to Conejos, Valles Caldera graphs page.


Western Regional Climate Center,wrcc@dri.edu